sensor_id;sensor_type;location;lat;lon;timestamp;pressure;altitude;pressure_sealevel;temperature;humidity
48968;BME280;46511;53.148;8.204;2022-12-18T00:02:03;102911.66;;;-2.49;92.26
48968;BME280;46511;53.148;8.204;2022-12-18T00:04:34;102904.97;;;-2.41;91.86
48968;BME280;46511;53.148;8.204;2022-12-18T00:07:06;102916.72;;;-2.54;92.65
48968;BME280;46511;53.148;8.204;2022-12-18T00:09:37;102910.13;;;-2.43;92.14
48968;BME280;46511;53.148;8.204;2022-12-18T00:12:08;102903.41;;;-2.36;91.63
48968;BME280;46511;53.148;8.204;2022-12-18T00:14:40;102894.28;;;-2.50;91.27
48968;BME280;46511;53.148;8.204;2022-12-18T00:17:11;102900.19;;;-2.83;92.50
48968;BME280;46511;53.148;8.204;2022-12-18T00:19:42;102901.38;;;-2.73;92.10
48968;BME280;46511;53.148;8.204;2022-12-18T00:22:13;102891.94;;;-2.70;91.93
48968;BME280;46511;53.148;8.204;2022-12-18T00:24:44;102898.59;;;-2.78;92.75
48968;BME280;46511;53.148;8.204;2022-12-18T00:27:16;102898.78;;;-2.73;91.82
48968;BME280;46511;53.148;8.204;2022-12-18T00:29:47;102899.75;;;-2.70;91.86
48968;BME280;46511;53.148;8.204;2022-12-18T00:32:19;102898.44;;;-2.84;91.77
48968;BME280;46511;53.148;8.204;2022-12-18T00:34:50;102900.06;;;-2.86;91.81
48968;BME280;46511;53.148;8.204;2022-12-18T00:37:21;102897.38;;;-2.89;91.31
48968;BME280;46511;53.148;8.204;2022-12-18T00:39:52;102900.81;;;-2.90;92.06
48968;BME280;46511;53.148;8.204;2022-12-18T00:42:24;102899.06;;;-2.91;91.71
48968;BME280;46511;53.148;8.204;2022-12-18T00:45:13;102893.25;;;-3.09;92.50
48968;BME280;46511;53.148;8.204;2022-12-18T00:47:45;102899.59;;;-3.01;91.77
48968;BME280;46511;53.148;8.204;2022-12-18T00:50:16;102895.84;;;-3.09;91.05
48968;BME280;46511;53.148;8.204;2022-12-18T00:52:47;102894.31;;;-3.30;91.06
48968;BME280;46511;53.148;8.204;2022-12-18T00:55:19;102894.94;;;-3.37;92.13
48968;BME280;46511;53.148;8.204;2022-12-18T00:57:51;102900.38;;;-3.55;91.54
48968;BME280;46511;53.148;8.204;2022-12-18T01:00:23;102914.66;;;-3.67;92.85
48968;BME280;46511;53.148;8.204;2022-12-18T01:02:54;102910.28;;;-3.68;92.90
48968;BME280;46511;53.148;8.204;2022-12-18T01:05:26;102920.13;;;-3.84;92.89
48968;BME280;46511;53.148;8.204;2022-12-18T01:07:57;102919.03;;;-3.89;92.90
48968;BME280;46511;53.148;8.204;2022-12-18T01:10:29;102925.91;;;-3.91;92.09
48968;BME280;46511;53.148;8.204;2022-12-18T01:13:00;102918.84;;;-3.95;91.86
48968;BME280;46511;53.148;8.204;2022-12-18T01:15:31;102915.84;;;-4.06;92.00
48968;BME280;46511;53.148;8.204;2022-12-18T01:17:58;102917.91;;;-4.19;92.67
48968;BME280;46511;53.148;8.204;2022-12-18T01:20:29;102927.19;;;-4.26;92.68
48968;BME280;46511;53.148;8.204;2022-12-18T01:23:00;102926.47;;;-4.22;92.45
48968;BME280;46511;53.148;8.204;2022-12-18T01:25:32;102929.50;;;-4.34;92.58
48968;BME280;46511;53.148;8.204;2022-12-18T01:28:06;102928.56;;;-4.36;92.39
48968;BME280;46511;53.148;8.204;2022-12-18T01:30:37;102933.78;;;-4.34;91.62
48968;BME280;46511;53.148;8.204;2022-12-18T01:33:08;102938.22;;;-4.32;91.94
48968;BME280;46511;53.148;8.204;2022-12-18T01:35:41;102940.50;;;-4.39;91.19
48968;BME280;46511;53.148;8.204;2022-12-18T01:38:13;102934.91;;;-4.50;91.60
48968;BME280;46511;53.148;8.204;2022-12-18T01:40:44;102937.00;;;-4.62;91.28
48968;BME280;46511;53.148;8.204;2022-12-18T01:43:15;102946.34;;;-4.45;90.75
48968;BME280;46511;53.148;8.204;2022-12-18T01:45:46;102936.72;;;-4.47;90.79
48968;BME280;46511;53.148;8.204;2022-12-18T01:48:18;102946.72;;;-4.56;90.51
48968;BME280;46511;53.148;8.204;2022-12-18T01:50:49;102945.84;;;-4.57;89.83
48968;BME280;46511;53.148;8.204;2022-12-18T01:53:21;102961.28;;;-4.60;89.93
48968;BME280;46511;53.148;8.204;2022-12-18T01:55:55;102962.19;;;-4.60;89.45
48968;BME280;46511;53.148;8.204;2022-12-18T01:58:46;102949.16;;;-4.61;89.99
48968;BME280;46511;53.148;8.204;2022-12-18T02:01:23;102962.06;;;-4.63;89.59
48968;BME280;46511;53.148;8.204;2022-12-18T02:04:21;102970.53;;;-4.67;89.11
48968;BME280;46511;53.148;8.204;2022-12-18T02:09:48;102960.91;;;-4.69;89.05
48968;BME280;46511;53.148;8.204;2022-12-18T02:12:30;102959.97;;;-4.71;88.34
48968;BME280;46511;53.148;8.204;2022-12-18T02:15:19;102960.53;;;-4.78;88.24
48968;BME280;46511;53.148;8.204;2022-12-18T02:17:58;102957.69;;;-4.84;88.24
48968;BME280;46511;53.148;8.204;2022-12-18T02:20:40;102959.84;;;-4.95;89.77
48968;BME280;46511;53.148;8.204;2022-12-18T02:26:13;102949.91;;;-4.84;88.95
48968;BME280;46511;53.148;8.204;2022-12-18T02:29:12;102943.72;;;-4.88;88.78
48968;BME280;46511;53.148;8.204;2022-12-18T02:31:54;102948.84;;;-4.90;88.77
48968;BME280;46511;53.148;8.204;2022-12-18T02:34:30;102944.44;;;-4.92;88.04
48968;BME280;46511;53.148;8.204;2022-12-18T02:37:04;102935.50;;;-4.99;88.56
48968;BME280;46511;53.148;8.204;2022-12-18T02:39:41;102938.78;;;-5.03;88.58
48968;BME280;46511;53.148;8.204;2022-12-18T02:42:16;102937.16;;;-5.01;89.00
48968;BME280;46511;53.148;8.204;2022-12-18T02:44:50;102942.09;;;-5.07;88.95
48968;BME280;46511;53.148;8.204;2022-12-18T02:47:24;102940.31;;;-5.08;89.11
48968;BME280;46511;53.148;8.204;2022-12-18T02:58:46;102938.56;;;-5.09;88.26
48968;BME280;46511;53.148;8.204;2022-12-18T03:01:34;102940.88;;;-5.15;89.17
48968;BME280;46511;53.148;8.204;2022-12-18T03:04:12;102939.00;;;-5.19;89.28
48968;BME280;46511;53.148;8.204;2022-12-18T03:06:50;102926.66;;;-5.25;89.09
48968;BME280;46511;53.148;8.204;2022-12-18T03:09:32;102928.84;;;-5.34;89.36
48968;BME280;46511;53.148;8.204;2022-12-18T03:12:10;102921.47;;;-5.25;89.61
48968;BME280;46511;53.148;8.204;2022-12-18T03:15:03;102918.31;;;-5.38;89.41
48968;BME280;46511;53.148;8.204;2022-12-18T03:17:41;102915.13;;;-5.31;89.57
48968;BME280;46511;53.148;8.204;2022-12-18T03:20:18;102916.78;;;-5.33;89.01
48968;BME280;46511;53.148;8.204;2022-12-18T03:22:53;102920.19;;;-5.34;88.92
48968;BME280;46511;53.148;8.204;2022-12-18T03:25:31;102928.78;;;-5.35;88.74
48968;BME280;46511;53.148;8.204;2022-12-18T03:28:05;102930.44;;;-5.37;89.31
48968;BME280;46511;53.148;8.204;2022-12-18T03:30:41;102931.44;;;-5.34;88.43
48968;BME280;46511;53.148;8.204;2022-12-18T03:33:16;102935.63;;;-5.37;89.07
48968;BME280;46511;53.148;8.204;2022-12-18T03:35:56;102945.34;;;-5.32;87.99
48968;BME280;46511;53.148;8.204;2022-12-18T03:38:28;102941.03;;;-5.31;88.16
48968;BME280;46511;53.148;8.204;2022-12-18T03:43:47;102934.78;;;-5.36;88.04
48968;BME280;46511;53.148;8.204;2022-12-18T03:46:26;102931.56;;;-5.31;88.67
48968;BME280;46511;53.148;8.204;2022-12-18T03:49:04;102930.81;;;-5.28;88.15
48968;BME280;46511;53.148;8.204;2022-12-18T03:54:25;102939.41;;;-5.29;87.11
48968;BME280;46511;53.148;8.204;2022-12-18T03:57:00;102937.16;;;-5.41;87.64
48968;BME280;46511;53.148;8.204;2022-12-18T03:59:45;102931.81;;;-5.46;87.91
48968;BME280;46511;53.148;8.204;2022-12-18T04:02:20;102926.50;;;-5.49;88.42
48968;BME280;46511;53.148;8.204;2022-12-18T04:04:55;102929.22;;;-5.46;88.29
48968;BME280;46511;53.148;8.204;2022-12-18T04:07:30;102933.69;;;-5.41;87.98
48968;BME280;46511;53.148;8.204;2022-12-18T04:10:03;102937.25;;;-5.39;87.61
48968;BME280;46511;53.148;8.204;2022-12-18T04:12:37;102943.94;;;-5.44;87.49
48968;BME280;46511;53.148;8.204;2022-12-18T04:15:09;102947.47;;;-5.42;86.93
48968;BME280;46511;53.148;8.204;2022-12-18T04:17:45;102938.47;;;-5.51;86.89
48968;BME280;46511;53.148;8.204;2022-12-18T04:20:19;102933.28;;;-5.51;87.33
48968;BME280;46511;53.148;8.204;2022-12-18T04:22:50;102926.50;;;-5.49;87.56
48968;BME280;46511;53.148;8.204;2022-12-18T04:25:22;102920.09;;;-5.57;87.08
48968;BME280;46511;53.148;8.204;2022-12-18T04:27:53;102928.97;;;-5.71;87.39
48968;BME280;46511;53.148;8.204;2022-12-18T04:30:24;102934.84;;;-5.75;88.70
48968;BME280;46511;53.148;8.204;2022-12-18T04:32:56;102935.78;;;-5.73;88.44
48968;BME280;46511;53.148;8.204;2022-12-18T04:35:27;102936.59;;;-5.74;88.75
48968;BME280;46511;53.148;8.204;2022-12-18T04:37:58;102938.50;;;-5.70;88.05
48968;BME280;46511;53.148;8.204;2022-12-18T04:40:30;102937.59;;;-5.70;87.92
48968;BME280;46511;53.148;8.204;2022-12-18T04:43:01;102948.59;;;-5.57;87.48
48968;BME280;46511;53.148;8.204;2022-12-18T04:45:33;102943.88;;;-5.65;87.96
48968;BME280;46511;53.148;8.204;2022-12-18T04:48:04;102947.53;;;-5.60;87.38
48968;BME280;46511;53.148;8.204;2022-12-18T04:50:36;102935.00;;;-5.70;87.62
48968;BME280;46511;53.148;8.204;2022-12-18T04:53:07;102937.81;;;-5.66;87.50
48968;BME280;46511;53.148;8.204;2022-12-18T04:55:39;102944.06;;;-5.61;87.35
48968;BME280;46511;53.148;8.204;2022-12-18T04:58:10;102940.66;;;-5.60;87.37
48968;BME280;46511;53.148;8.204;2022-12-18T05:00:41;102945.19;;;-5.56;87.46
48968;BME280;46511;53.148;8.204;2022-12-18T05:03:12;102954.00;;;-5.51;86.69
48968;BME280;46511;53.148;8.204;2022-12-18T05:05:44;102956.06;;;-5.43;85.76
48968;BME280;46511;53.148;8.204;2022-12-18T05:08:15;102959.94;;;-5.53;86.58
48968;BME280;46511;53.148;8.204;2022-12-18T05:10:46;102966.00;;;-5.53;86.70
48968;BME280;46511;53.148;8.204;2022-12-18T05:13:17;102965.19;;;-5.52;86.69
48968;BME280;46511;53.148;8.204;2022-12-18T05:15:51;102970.25;;;-5.55;86.64
48968;BME280;46511;53.148;8.204;2022-12-18T05:18:23;102972.63;;;-5.59;87.34
48968;BME280;46511;53.148;8.204;2022-12-18T05:20:55;102969.56;;;-5.51;86.47
48968;BME280;46511;53.148;8.204;2022-12-18T05:23:27;102961.88;;;-5.49;86.06
48968;BME280;46511;53.148;8.204;2022-12-18T05:25:59;102957.44;;;-5.52;86.16
48968;BME280;46511;53.148;8.204;2022-12-18T05:28:33;102959.94;;;-5.53;86.58
48968;BME280;46511;53.148;8.204;2022-12-18T05:31:05;102962.75;;;-5.49;86.79
48968;BME280;46511;53.148;8.204;2022-12-18T05:33:36;102971.31;;;-5.50;85.65
48968;BME280;46511;53.148;8.204;2022-12-18T05:36:08;102961.72;;;-5.52;86.00
48968;BME280;46511;53.148;8.204;2022-12-18T05:38:40;102966.91;;;-5.52;85.56
48968;BME280;46511;53.148;8.204;2022-12-18T05:41:12;102961.66;;;-5.54;86.07
48968;BME280;46511;53.148;8.204;2022-12-18T05:43:43;102958.47;;;-5.48;86.02
48968;BME280;46511;53.148;8.204;2022-12-18T05:46:15;102960.16;;;-5.49;86.16
48968;BME280;46511;53.148;8.204;2022-12-18T05:48:51;102956.75;;;-5.48;86.05
48968;BME280;46511;53.148;8.204;2022-12-18T05:51:22;102957.72;;;-5.46;86.03
48968;BME280;46511;53.148;8.204;2022-12-18T05:53:54;102963.56;;;-5.50;86.11
48968;BME280;46511;53.148;8.204;2022-12-18T05:56:25;102964.72;;;-5.43;86.48
48968;BME280;46511;53.148;8.204;2022-12-18T05:58:57;102969.84;;;-5.44;85.94
48968;BME280;46511;53.148;8.204;2022-12-18T06:01:28;102966.41;;;-5.43;85.68
48968;BME280;46511;53.148;8.204;2022-12-18T06:03:59;102966.81;;;-5.34;85.27
48968;BME280;46511;53.148;8.204;2022-12-18T06:06:31;102971.72;;;-5.40;85.25
48968;BME280;46511;53.148;8.204;2022-12-18T06:09:02;102962.88;;;-5.46;84.82
48968;BME280;46511;53.148;8.204;2022-12-18T06:11:39;102969.72;;;-5.48;85.30
48968;BME280;46511;53.148;8.204;2022-12-18T06:14:10;102973.75;;;-5.33;85.09
48968;BME280;46511;53.148;8.204;2022-12-18T06:16:41;102977.00;;;-5.39;84.89
48968;BME280;46511;53.148;8.204;2022-12-18T06:19:14;102967.75;;;-5.32;84.34
48968;BME280;46511;53.148;8.204;2022-12-18T06:21:47;102981.81;;;-5.27;84.70
48968;BME280;46511;53.148;8.204;2022-12-18T06:24:18;102976.63;;;-5.27;84.45
48968;BME280;46511;53.148;8.204;2022-12-18T06:26:49;102984.53;;;-5.24;84.49
48968;BME280;46511;53.148;8.204;2022-12-18T06:29:20;102984.41;;;-5.27;84.06
48968;BME280;46511;53.148;8.204;2022-12-18T06:31:52;102983.47;;;-5.29;84.45
48968;BME280;46511;53.148;8.204;2022-12-18T06:34:23;102984.00;;;-5.36;83.87
48968;BME280;46511;53.148;8.204;2022-12-18T06:36:54;102978.72;;;-5.39;83.95
48968;BME280;46511;53.148;8.204;2022-12-18T06:39:28;102976.78;;;-5.43;85.30
48968;BME280;46511;53.148;8.204;2022-12-18T06:42:00;102981.91;;;-5.45;84.69
48968;BME280;46511;53.148;8.204;2022-12-18T06:44:31;102986.78;;;-5.51;85.19
48968;BME280;46511;53.148;8.204;2022-12-18T06:47:03;102982.66;;;-5.48;84.49
48968;BME280;46511;53.148;8.204;2022-12-18T06:49:34;102987.47;;;-5.36;84.09
48968;BME280;46511;53.148;8.204;2022-12-18T06:52:05;102994.84;;;-5.45;84.86
48968;BME280;46511;53.148;8.204;2022-12-18T06:54:37;102993.19;;;-5.43;84.51
48968;BME280;46511;53.148;8.204;2022-12-18T06:57:08;102989.44;;;-5.50;84.18
48968;BME280;46511;53.148;8.204;2022-12-18T06:59:39;102992.78;;;-5.52;84.72
48968;BME280;46511;53.148;8.204;2022-12-18T07:02:11;102998.84;;;-5.52;85.75
48968;BME280;46511;53.148;8.204;2022-12-18T07:04:43;103001.72;;;-5.46;84.84
48968;BME280;46511;53.148;8.204;2022-12-18T07:07:14;102990.50;;;-5.46;84.77
48968;BME280;46511;53.148;8.204;2022-12-18T07:09:45;102994.16;;;-5.41;84.10
48968;BME280;46511;53.148;8.204;2022-12-18T07:12:17;102994.09;;;-5.42;85.09
48968;BME280;46511;53.148;8.204;2022-12-18T07:14:48;102987.25;;;-5.40;84.57
48968;BME280;46511;53.148;8.204;2022-12-18T07:17:20;102992.66;;;-5.36;84.48
48968;BME280;46511;53.148;8.204;2022-12-18T07:19:51;102984.44;;;-5.47;84.87
48968;BME280;46511;53.148;8.204;2022-12-18T07:22:22;102984.50;;;-5.45;85.16
48968;BME280;46511;53.148;8.204;2022-12-18T07:24:55;102982.38;;;-5.34;84.37
48968;BME280;46511;53.148;8.204;2022-12-18T07:27:26;102984.00;;;-5.36;84.52
48968;BME280;46511;53.148;8.204;2022-12-18T07:29:58;102981.53;;;-5.33;84.79
48968;BME280;46511;53.148;8.204;2022-12-18T07:32:30;102987.66;;;-5.31;84.03
48968;BME280;46511;53.148;8.204;2022-12-18T07:35:01;102991.78;;;-5.36;84.24
48968;BME280;46511;53.148;8.204;2022-12-18T07:37:32;102989.31;;;-5.33;84.92
48968;BME280;46511;53.148;8.204;2022-12-18T07:40:04;102992.72;;;-5.34;84.51
48968;BME280;46511;53.148;8.204;2022-12-18T07:42:36;102982.38;;;-5.34;84.33
48968;BME280;46511;53.148;8.204;2022-12-18T07:45:08;102974.16;;;-5.24;84.27
48968;BME280;46511;53.148;8.204;2022-12-18T07:47:39;102983.16;;;-5.16;84.04
48968;BME280;46511;53.148;8.204;2022-12-18T07:50:12;102976.97;;;-5.20;83.26
48968;BME280;46511;53.148;8.204;2022-12-18T07:52:44;102964.00;;;-5.20;83.54
48968;BME280;46511;53.148;8.204;2022-12-18T07:55:15;102974.31;;;-5.21;83.55
48968;BME280;46511;53.148;8.204;2022-12-18T07:57:46;102977.59;;;-5.04;83.39
48968;BME280;46511;53.148;8.204;2022-12-18T08:00:18;102974.50;;;-4.96;83.22
48968;BME280;46511;53.148;8.204;2022-12-18T08:02:49;102976.09;;;-4.78;82.18
48968;BME280;46511;53.148;8.204;2022-12-18T08:05:21;102972.41;;;-4.83;82.19
48968;BME280;46511;53.148;8.204;2022-12-18T08:07:52;102962.13;;;-4.61;81.92
48968;BME280;46511;53.148;8.204;2022-12-18T08:10:24;102960.66;;;-4.54;80.76
48968;BME280;46511;53.148;8.204;2022-12-18T08:12:55;102960.38;;;-4.40;80.83
48968;BME280;46511;53.148;8.204;2022-12-18T08:15:26;102958.19;;;-4.29;80.64
48968;BME280;46511;53.148;8.204;2022-12-18T08:17:57;102970.31;;;-4.07;80.54
48968;BME280;46511;53.148;8.204;2022-12-18T08:20:29;102968.75;;;-4.02;79.53
48968;BME280;46511;53.148;8.204;2022-12-18T08:23:00;102961.28;;;-3.70;79.46
48968;BME280;46511;53.148;8.204;2022-12-18T08:25:31;102961.56;;;-3.39;78.95
48968;BME280;46511;53.148;8.204;2022-12-18T08:28:03;102963.59;;;-3.30;77.36
48968;BME280;46511;53.148;8.204;2022-12-18T08:30:34;102957.72;;;-3.25;77.44
48968;BME280;46511;53.148;8.204;2022-12-18T08:33:06;102956.59;;;-3.07;76.02
48968;BME280;46511;53.148;8.204;2022-12-18T08:35:37;102956.81;;;-3.01;75.82
48968;BME280;46511;53.148;8.204;2022-12-18T08:38:09;102946.84;;;-3.13;75.88
48968;BME280;46511;53.148;8.204;2022-12-18T08:40:40;102960.28;;;-3.01;75.37
48968;BME280;46511;53.148;8.204;2022-12-18T08:43:11;102962.06;;;-3.00;75.30
48968;BME280;46511;53.148;8.204;2022-12-18T08:46:01;102954.66;;;-2.88;74.87
48968;BME280;46511;53.148;8.204;2022-12-18T08:48:33;102957.13;;;-2.92;75.17
48968;BME280;46511;53.148;8.204;2022-12-18T08:51:04;102966.75;;;-2.63;74.50
48968;BME280;46511;53.148;8.204;2022-12-18T08:53:36;102953.28;;;-2.49;73.86
48968;BME280;46511;53.148;8.204;2022-12-18T08:56:07;102951.81;;;-2.13;72.46
48968;BME280;46511;53.148;8.204;2022-12-18T08:58:39;102965.47;;;-1.61;70.86
48968;BME280;46511;53.148;8.204;2022-12-18T09:01:11;102970.75;;;-1.28;68.99
48968;BME280;46511;53.148;8.204;2022-12-18T09:03:43;102979.47;;;-0.95;67.41
48968;BME280;46511;53.148;8.204;2022-12-18T09:06:15;102980.19;;;-0.30;66.35
48968;BME280;46511;53.148;8.204;2022-12-18T09:08:50;102985.28;;;0.44;65.21
48968;BME280;46511;53.148;8.204;2022-12-18T09:11:23;102989.38;;;2.43;60.86
48968;BME280;46511;53.148;8.204;2022-12-18T09:13:56;102996.94;;;2.93;54.38
48968;BME280;46511;53.148;8.204;2022-12-18T09:16:28;102988.75;;;2.63;53.99
48968;BME280;46511;53.148;8.204;2022-12-18T09:19:01;102978.69;;;4.27;51.46
48968;BME280;46511;53.148;8.204;2022-12-18T09:21:34;102973.53;;;3.13;50.39
48968;BME280;46511;53.148;8.204;2022-12-18T09:24:06;102966.22;;;1.50;54.63
48968;BME280;46511;53.148;8.204;2022-12-18T09:26:37;102981.28;;;1.10;56.43
48968;BME280;46511;53.148;8.204;2022-12-18T09:29:08;102987.41;;;1.10;57.19
48968;BME280;46511;53.148;8.204;2022-12-18T09:31:40;102981.28;;;1.08;57.59
48968;BME280;46511;53.148;8.204;2022-12-18T09:34:11;102980.88;;;1.35;57.25
48968;BME280;46511;53.148;8.204;2022-12-18T09:36:42;102979.81;;;1.24;56.83
48968;BME280;46511;53.148;8.204;2022-12-18T09:39:14;102973.94;;;0.89;58.10
48968;BME280;46511;53.148;8.204;2022-12-18T09:47:08;102989.94;;;1.57;57.33
48968;BME280;46511;53.148;8.204;2022-12-18T09:49:46;102985.25;;;3.52;53.78
48968;BME280;46511;53.148;8.204;2022-12-18T09:52:21;102968.34;;;4.91;47.79
48968;BME280;46511;53.148;8.204;2022-12-18T09:55:09;102974.38;;;6.35;44.62
48968;BME280;46511;53.148;8.204;2022-12-18T09:57:55;102963.91;;;7.52;41.67
48968;BME280;46511;53.148;8.204;2022-12-18T10:00:32;102965.31;;;8.63;43.67
48968;BME280;46511;53.148;8.204;2022-12-18T10:03:08;102962.03;;;9.57;39.07
48968;BME280;46511;53.148;8.204;2022-12-18T10:08:58;102968.03;;;9.68;36.78
48968;BME280;46511;53.148;8.204;2022-12-18T10:15:10;102964.44;;;6.83;41.16
48968;BME280;46511;53.148;8.204;2022-12-18T10:20:32;102938.88;;;6.82;43.09
48968;BME280;46511;53.148;8.204;2022-12-18T10:23:21;102939.84;;;6.70;43.91
48968;BME280;46511;53.148;8.204;2022-12-18T10:26:10;102940.19;;;6.01;43.65
48968;BME280;46511;53.148;8.204;2022-12-18T10:28:42;102937.59;;;4.92;45.49
48968;BME280;46511;53.148;8.204;2022-12-18T10:31:16;102930.22;;;3.81;48.22
48968;BME280;46511;53.148;8.204;2022-12-18T10:33:49;102936.66;;;3.02;50.74
48968;BME280;46511;53.148;8.204;2022-12-18T10:36:20;102936.13;;;2.47;53.32
48968;BME280;46511;53.148;8.204;2022-12-18T10:38:53;102938.44;;;2.21;54.49
48968;BME280;46511;53.148;8.204;2022-12-18T10:41:39;102921.69;;;4.30;52.88
48968;BME280;46511;53.148;8.204;2022-12-18T10:44:18;102916.34;;;6.26;47.15
48968;BME280;46511;53.148;8.204;2022-12-18T10:46:54;102910.13;;;6.33;46.38
48968;BME280;46511;53.148;8.204;2022-12-18T10:49:34;102916.56;;;4.98;48.03
48968;BME280;46511;53.148;8.204;2022-12-18T10:52:16;102920.06;;;5.45;49.63
48968;BME280;46511;53.148;8.204;2022-12-18T10:54:54;102912.84;;;8.20;44.60
48968;BME280;46511;53.148;8.204;2022-12-18T10:57:34;102902.09;;;11.10;39.06
48968;BME280;46511;53.148;8.204;2022-12-18T11:02:54;102881.59;;;13.49;32.51
48968;BME280;46511;53.148;8.204;2022-12-18T11:08:00;102871.41;;;19.79;25.77
48968;BME280;46511;53.148;8.204;2022-12-18T11:13:15;102875.66;;;11.38;32.57
48968;BME280;46511;53.148;8.204;2022-12-18T11:15:49;102878.41;;;8.85;36.95
48968;BME280;46511;53.148;8.204;2022-12-18T11:18:25;102869.97;;;7.11;40.47
48968;BME280;46511;53.148;8.204;2022-12-18T11:21:08;102873.31;;;6.07;43.55
48968;BME280;46511;53.148;8.204;2022-12-18T11:23:51;102874.31;;;5.65;45.26
48968;BME280;46511;53.148;8.204;2022-12-18T11:26:32;102872.66;;;5.12;46.62
48968;BME280;46511;53.148;8.204;2022-12-18T11:29:09;102868.25;;;4.68;47.27
48968;BME280;46511;53.148;8.204;2022-12-18T11:31:47;102870.00;;;4.63;48.76
48968;BME280;46511;53.148;8.204;2022-12-18T11:36:59;102847.22;;;4.76;48.28
48968;BME280;46511;53.148;8.204;2022-12-18T11:39:35;102844.53;;;4.62;49.00
48968;BME280;46511;53.148;8.204;2022-12-18T11:45:29;102829.59;;;4.30;50.89
48968;BME280;46511;53.148;8.204;2022-12-18T11:51:04;102823.44;;;4.19;51.37
48968;BME280;46511;53.148;8.204;2022-12-18T11:53:43;102822.53;;;4.10;52.30
48968;BME280;46511;53.148;8.204;2022-12-18T11:56:26;102818.94;;;3.88;52.68
48968;BME280;46511;53.148;8.204;2022-12-18T12:10:39;102807.19;;;3.12;55.61
48968;BME280;46511;53.148;8.204;2022-12-18T12:16:33;102795.41;;;2.57;58.27
48968;BME280;46511;53.148;8.204;2022-12-18T12:19:16;102808.13;;;2.17;60.15
48968;BME280;46511;53.148;8.204;2022-12-18T12:21:52;102804.59;;;2.11;60.09
48968;BME280;46511;53.148;8.204;2022-12-18T12:24:39;102803.59;;;2.01;61.65
48968;BME280;46511;53.148;8.204;2022-12-18T12:27:22;102788.69;;;1.98;61.62
48968;BME280;46511;53.148;8.204;2022-12-18T12:35:29;102791.50;;;2.15;62.13
48968;BME280;46511;53.148;8.204;2022-12-18T12:38:15;102782.75;;;2.12;61.46
48968;BME280;46511;53.148;8.204;2022-12-18T12:41:00;102786.75;;;1.79;62.80
48968;BME280;46511;53.148;8.204;2022-12-18T12:46:15;102761.94;;;1.48;64.04
48968;BME280;46511;53.148;8.204;2022-12-18T12:48:50;102761.91;;;1.47;64.88
48968;BME280;46511;53.148;8.204;2022-12-18T12:51:26;102756.78;;;1.56;64.66
48968;BME280;46511;53.148;8.204;2022-12-18T12:54:01;102756.69;;;1.48;64.85
48968;BME280;46511;53.148;8.204;2022-12-18T12:56:51;102762.16;;;1.66;64.72
48968;BME280;46511;53.148;8.204;2022-12-18T12:59:31;102762.94;;;1.61;65.29
48968;BME280;46511;53.148;8.204;2022-12-18T13:02:33;102752.47;;;1.61;64.84
48968;BME280;46511;53.148;8.204;2022-12-18T13:05:14;102748.09;;;1.60;65.19
48968;BME280;46511;53.148;8.204;2022-12-18T13:07:59;102745.34;;;1.51;65.60
48968;BME280;46511;53.148;8.204;2022-12-18T13:10:42;102733.19;;;1.53;65.40
48968;BME280;46511;53.148;8.204;2022-12-18T13:13:15;102728.88;;;1.58;64.83
48968;BME280;46511;53.148;8.204;2022-12-18T13:16:03;102718.38;;;1.55;64.95
48968;BME280;46511;53.148;8.204;2022-12-18T13:18:36;102719.22;;;1.54;65.18
48968;BME280;46511;53.148;8.204;2022-12-18T13:21:17;102713.00;;;1.42;65.45
48968;BME280;46511;53.148;8.204;2022-12-18T13:23:55;102711.28;;;1.48;65.75
48968;BME280;46511;53.148;8.204;2022-12-18T13:28:58;102707.56;;;1.29;66.30
48968;BME280;46511;53.148;8.204;2022-12-18T13:36:44;102703.75;;;1.04;67.33
48968;BME280;46511;53.148;8.204;2022-12-18T13:42:39;102689.00;;;1.10;67.78
48968;BME280;46511;53.148;8.204;2022-12-18T13:45:31;102685.50;;;1.10;66.85
48968;BME280;46511;53.148;8.204;2022-12-18T13:48:03;102691.59;;;1.07;67.80
48968;BME280;46511;53.148;8.204;2022-12-18T13:50:35;102683.53;;;0.91;67.94
48968;BME280;46511;53.148;8.204;2022-12-18T13:53:06;102691.13;;;0.75;68.42
48968;BME280;46511;53.148;8.204;2022-12-18T13:55:37;102690.34;;;0.78;68.28
48968;BME280;46511;53.148;8.204;2022-12-18T13:58:11;102694.66;;;0.76;68.51
48968;BME280;46511;53.148;8.204;2022-12-18T14:00:43;102692.94;;;0.78;68.67
48968;BME280;46511;53.148;8.204;2022-12-18T14:03:16;102678.00;;;0.69;68.81
48968;BME280;46511;53.148;8.204;2022-12-18T14:05:54;102673.16;;;0.38;69.82
48968;BME280;46511;53.148;8.204;2022-12-18T14:08:24;102674.13;;;0.43;70.36
48968;BME280;46511;53.148;8.204;2022-12-18T14:11:01;102669.75;;;0.42;70.35
48968;BME280;46511;53.148;8.204;2022-12-18T14:13:37;102671.53;;;0.47;69.97
48968;BME280;46511;53.148;8.204;2022-12-18T14:16:12;102667.09;;;0.40;70.47
48968;BME280;46511;53.148;8.204;2022-12-18T14:18:48;102651.47;;;0.43;69.86
48968;BME280;46511;53.148;8.204;2022-12-18T14:21:26;102653.94;;;0.36;70.20
48968;BME280;46511;53.148;8.204;2022-12-18T14:26:46;102642.41;;;0.21;70.62
48968;BME280;46511;53.148;8.204;2022-12-18T14:29:26;102652.72;;;0.12;71.02
48968;BME280;46511;53.148;8.204;2022-12-18T14:32:16;102658.84;;;0.14;71.24
48968;BME280;46511;53.148;8.204;2022-12-18T14:34:50;102651.72;;;0.04;71.38
48968;BME280;46511;53.148;8.204;2022-12-18T14:37:23;102645.66;;;0.07;71.44
48968;BME280;46511;53.148;8.204;2022-12-18T14:39:57;102650.72;;;-0.03;71.81
48968;BME280;46511;53.148;8.204;2022-12-18T14:42:30;102645.38;;;-0.10;71.94
48968;BME280;46511;53.148;8.204;2022-12-18T14:48:33;102628.75;;;-0.15;72.05
48968;BME280;46511;53.148;8.204;2022-12-18T14:53:55;102631.19;;;-0.26;72.57
48968;BME280;46511;53.148;8.204;2022-12-18T14:56:33;102632.13;;;-0.21;72.33
48968;BME280;46511;53.148;8.204;2022-12-18T14:59:20;102628.38;;;-0.37;73.22
48968;BME280;46511;53.148;8.204;2022-12-18T15:04:37;102609.31;;;-0.31;72.66
48968;BME280;46511;53.148;8.204;2022-12-18T15:07:16;102609.25;;;-0.36;73.20
48968;BME280;46511;53.148;8.204;2022-12-18T15:10:02;102600.66;;;-0.29;73.23